Flight Track Log - Related Links

Times and Time Zones

All times are in EDT time to prevent confusion due to time zone crossing. See the N5920V flight status page for this flight to view local times or setup timezone preferences in your user account.

Time Position Orientation Groundspeed Altitude Reporting Facility
EDT Latitude Longitude Course Direction KTS MPH feet Rate Location/Type
Sun 07:33:56 PM 29.3789 -81.3911 189° South 140 161 8,300  Level Jacksonville Center
Sun 07:34:57 PM 29.3472 -81.3656 145° Southeast 139 160 8,300  Level Jacksonville Center
Sun 07:35:57 PM 29.3175 -81.3397 143° Southeast 136 157 8,300  Level Jacksonville Center
Sun 07:36:58 PM 29.2881 -81.3139 143° Southeast 134 154 8,300  Level Jacksonville Center
Sun 07:37:59 PM 29.2564 -81.2906 147° Southeast 133 153 8,300  Level Jacksonville Center
Sun 07:39:00 PM 29.0441 -81.2810 189° South  Level Estimated
Sun 07:39:45 PM 29.2000 -81.2500 148° Southeast 133 153 8,300  Level Orlando TRACON
Sun 07:40:45 PM 29.1667 -81.2167 139° Southeast 133 153 8,200 -50 Descending Orlando TRACON
Sun 07:41:45 PM 29.1333 -81.2000 156° South 136 157 8,200 53 Level Orlando TRACON
Sun 07:42:39 PM 29.1167 -81.1667 120° Southeast 130 150 8,300 53 Climbing Orlando TRACON
Sun 07:43:39 PM 29.0833 -81.1500 156° South 132 152 8,300  Level Orlando TRACON
Sun 07:44:39 PM 29.0667 -81.1167 120° Southeast 140 161 8,300  Level Orlando TRACON
Sun 07:45:51 PM 29.0500 -81.0667 111° Southeast 141 162 8,300  Level Orlando TRACON
Sun 07:46:51 PM 29.0500 -81.0167 90° East 137 158 8,300 -53 Level Orlando TRACON
Sun 07:47:45 PM 29.0333 -80.9833 120° Southeast 138 159 8,200  Descending Orlando TRACON
Sun 07:48:57 PM 29.0167 -80.9333 111° Southeast 138 159 8,300 45 Climbing Orlando TRACON
Sun 07:49:57 PM 28.9833 -80.9167 156° South 129 148 8,300 56 Level Orlando TRACON
Sun 07:50:45 PM 28.9500 -80.9167 180° South 134 154 8,400 56 Climbing Orlando TRACON
Sun 07:51:45 PM 28.9167 -80.9000 156° South 136 157 8,400 -43 Level Orlando TRACON
Sun 07:53:03 PM 28.8667 -80.8833 164° South 136 157 8,300  Descending Orlando TRACON
Sun 07:53:45 PM 28.8500 -80.8667 139° Southeast 134 154 8,400 62 Climbing Orlando TRACON
Sun 07:54:40 PM 28.8167 -80.8667 180° South 134 154 8,400  Level Orlando TRACON
Sun 07:55:40 PM 28.7833 -80.8500 156° South 132 152 8,400  Level Orlando TRACON
Sun 07:56:58 PM 28.7333 -80.8333 164° South 135 155 8,400 43 Level Orlando TRACON
Sun 07:57:58 PM 28.7000 -80.8333 180° South 132 152 8,500 111 Climbing Orlando TRACON
Sun 07:58:46 PM 28.6667 -80.8333 180° South 132 152 8,600 56 Climbing Orlando TRACON
Sun 07:59:46 PM 28.6333 -80.8333 180° South 134 154 8,600  Level Orlando TRACON
Sun 08:00:46 PM 28.6000 -80.8333 180° South 134 154 8,600  Level Orlando TRACON
Sun 08:01:46 PM 28.5667 -80.8333 180° South 136 157 8,600  Level Orlando TRACON
Sun 08:02:40 PM 28.5333 -80.8333 180° South 136 157 8,600 -45 Level Orlando TRACON
Sun 08:03:58 PM 28.4833 -80.8167 164° South 137 158 8,500 -83 Descending Orlando TRACON
Sun 08:05:04 PM 28.4333 -80.8167 180° South 138 159 8,400 -59 Descending Orlando TRACON
Sun 08:05:40 PM 28.4167 -80.8167 180° South 137 158 8,400 -43 Level Orlando TRACON
Sun 08:07:24 PM 28.3464 -80.8147 179° South 140 161 8,300 -37 Descending Miami Center
Sun 08:08:24 PM 28.3089 -80.8089 172° South 140 161 8,300  Level Miami Center
Sun 08:09:24 PM 28.2653 -80.8003 170° South 140 161 8,300  Level Miami Center
Sun 08:10:24 PM 28.2300 -80.7942 171° South 140 161 8,300  Level Miami Center
Sun 08:11:24 PM 28.1906 -80.7881 172° South 140 161 8,300 50 Level Miami Center
Sun 08:12:24 PM 28.1572 -80.7869 178° South 140 161 8,400 50 Climbing Miami Center
Sun 08:13:24 PM 28.1111 -80.7878 181° South 145 167 8,400  Level Miami Center
Sun 08:14:24 PM 28.0736 -80.7911 184° South 145 167 8,400 -50 Level Miami Center
Sun 08:15:24 PM 28.0358 -80.7992 191° South 145 167 8,300 -50 Descending Miami Center
Sun 08:16:24 PM 28.0000 -80.8075 192° South 145 167 8,300  Level Miami Center
Sun 08:17:24 PM 27.9603 -80.8153 190° South 145 167 8,300  Level Miami Center
Sun 08:18:24 PM 27.9203 -80.8258 193° South 145 167 8,300  Level Miami Center
Sun 08:19:24 PM 27.8847 -80.8269 182° South 145 167 8,300  Level Miami Center
Sun 08:20:24 PM 27.8408 -80.8300 184° South 145 167 8,300 -50 Level Miami Center
Sun 08:21:24 PM 27.8053 -80.8311 182° South 140 161 8,200 -50 Descending Miami Center
Sun 08:22:24 PM 27.7658 -80.8297 178° South 140 161 8,200 50 Level Miami Center
Sun 08:23:24 PM 27.7325 -80.8264 175° South 140 161 8,300 50 Climbing Miami Center
Sun 08:24:24 PM 27.6947 -80.8272 181° South 140 161 8,300  Level Miami Center
Sun 08:25:24 PM 27.6589 -80.8447 203° Southwest 140 161 8,300  Level Miami Center
Sun 08:26:24 PM 27.6189 -80.8597 198° South 145 167 8,300  Level Miami Center
Sun 08:27:24 PM 27.5850 -80.8775 205° Southwest 145 167 8,300  Level Miami Center
Sun 08:28:24 PM 27.5531 -80.8928 203° Southwest 145 167 8,300 50 Level Miami Center
Sun 08:29:24 PM 27.5172 -80.9100 203° Southwest 145 167 8,400 50 Climbing Miami Center
Sun 08:30:24 PM 27.4833 -80.9300 208° Southwest 145 167 8,400  Level Miami Center
Sun 08:31:24 PM 27.4492 -80.9522 210° Southwest 140 161 8,400 -50 Level Miami Center
Sun 08:32:24 PM 27.4131 -80.9742 208° Southwest 140 161 8,300  Descending Miami Center
Sun 08:33:24 PM 27.3769 -80.9939 206° Southwest 140 161 8,400  Climbing Miami Center
Sun 08:34:24 PM 27.3431 -81.0139 208° Southwest 140 161 8,300 -100 Descending Miami Center
Sun 08:35:24 PM 27.3069 -81.0311 203° Southwest 140 161 8,200 -50 Descending Miami Center
Sun 08:36:24 PM 27.2711 -81.0439 198° South 140 161 8,200 -50 Level Miami Center
Sun 08:37:24 PM 27.2375 -81.0592 202° Southwest 140 161 8,100 -150 Descending Miami Center
Sun 08:38:24 PM 27.1947 -81.0856 209° Southwest 146 168 7,900 -200 Descending Miami Center
Sun 08:39:24 PM 27.1567 -81.1053 205° Southwest 152 175 7,700 -250 Descending Miami Center
Sun 08:40:24 PM 27.1186 -81.1247 204° Southwest 152 175 7,400 -200 Descending Miami Center
Sun 08:41:24 PM 27.0825 -81.1422 203° Southwest 157 181 7,300 -200 Descending Miami Center
Sun 08:42:24 PM 27.0444 -81.1617 204° Southwest 157 181 7,000 -300 Descending Miami Center
Sun 08:43:24 PM 27.0042 -81.1836 206° Southwest 157 181 6,700 -350 Descending Miami Center
Sun 08:44:24 PM 26.9639 -81.2006 201° Southwest 152 175 6,300 -400 Descending Miami Center
Sun 08:45:24 PM 26.9236 -81.2200 203° Southwest 157 181 5,900 -400 Descending Miami Center
Sun 08:46:24 PM 26.8814 -81.2347 197° South 157 181 5,500 -400 Descending Miami Center
Sun 08:47:24 PM 26.8372 -81.2494 197° South 157 181 5,100 -400 Descending Miami Center
Sun 08:48:24 PM 26.7950 -81.2642 197° South 157 181 4,700 -450 Descending Miami Center
Sun 08:49:24 PM 26.7547 -81.2814 201° Southwest 157 181 4,200 -400 Descending Miami Center
Sun 08:50:24 PM 26.7164 -81.3031 207° Southwest 157 181 3,900 -300 Descending Miami Center
Sun 08:51:24 PM 26.6806 -81.3203 203° Southwest 157 181 3,600 -300 Descending Miami Center
Sun 08:53:00 PM 26.6368 -81.3674 224° Southwest  Level FlightAware Approximate
Sun 09:00:00 PM 26.4387 -81.5752 214° Southwest  Level FlightAware Approximate
Sun 09:01:00 PM 26.4072 -81.5988 214° Southwest  Level FlightAware Approximate
Sun 09:02:00 PM 26.3752 -81.6216 208° Southwest  Level FlightAware Approximate
Sun 09:03:00 PM 26.3418 -81.6416 208° Southwest  Level FlightAware Approximate
Sun 09:04:00 PM 26.3084 -81.6617 208° Southwest  Level FlightAware Approximate
Sun 09:05:00 PM 26.2750 -81.6817 208° Southwest  Level FlightAware Approximate
Sun 09:06:00 PM 26.2416 -81.7018 208° Southwest  Level FlightAware Approximate
Sun 09:07:00 PM 26.2086 -81.7227 214° Southwest  Level FlightAware Approximate
Sun 09:08:00 PM 26.1772 -81.7463 214° Southwest  Level FlightAware Approximate
Sun 09:09:00 PM 26.1500 -81.7667 214° Southwest  Level FlightAware Approximate
Sun 09:10:00 PM 26.1524 -81.7756 214° Southwest  Level Estimated
Sun 09:11:00 PM 26.1524 -81.7756 214° Southwest  Level Estimated
Sun 09:12:00 PM 26.1524 -81.7756 214° Southwest  Level Estimated
Sun 09:13:00 PM 26.1524 -81.7756 214° Southwest  Level Estimated
Sun 09:14:00 PM 26.1524 -81.7756 214° Southwest  Level Estimated
Sun 09:15:00 PM 26.1524 -81.7756 214° Southwest  Level Estimated
Sun 09:16:00 PM 26.1524 -81.7756 214° Southwest  Level Estimated
Sun 09:17:00 PM 26.1524 -81.7756 214° Southwest  Level Estimated
Sun 09:18:00 PM 26.1524 -81.7756 214° Southwest  Level Estimated
Sun 09:19:00 PM 26.1524 -81.7756 214° Southwest  Level Estimated
Sun 09:20:00 PM 26.1524 -81.7756 214° Southwest  Level Estimated

Login

Don't have an account? Register now (free) for customized features, flight alerts, and more!